sensor_id;sensor_type;location;lat;lon;timestamp;P1;durP1;ratioP1;P2;durP2;ratioP2
12906;SDS011;6521;50.498;8.474;2024-03-17T00:02:05;3.93;;;3.53;;
12906;SDS011;6521;50.498;8.474;2024-03-17T00:04:36;4.87;;;3.23;;
12906;SDS011;6521;50.498;8.474;2024-03-17T00:07:07;3.83;;;2.90;;
12906;SDS011;6521;50.498;8.474;2024-03-17T00:09:38;5.00;;;3.27;;
12906;SDS011;6521;50.498;8.474;2024-03-17T00:12:10;4.90;;;3.17;;
12906;SDS011;6521;50.498;8.474;2024-03-17T00:14:41;4.07;;;3.37;;
12906;SDS011;6521;50.498;8.474;2024-03-17T00:17:13;5.53;;;3.60;;
12906;SDS011;6521;50.498;8.474;2024-03-17T00:19:45;4.50;;;3.07;;
12906;SDS011;6521;50.498;8.474;2024-03-17T00:22:16;5.77;;;3.27;;
12906;SDS011;6521;50.498;8.474;2024-03-17T00:24:47;5.03;;;3.40;;
12906;SDS011;6521;50.498;8.474;2024-03-17T00:27:18;3.80;;;2.77;;
12906;SDS011;6521;50.498;8.474;2024-03-17T00:29:48;4.03;;;3.40;;
12906;SDS011;6521;50.498;8.474;2024-03-17T00:32:19;5.40;;;3.50;;
12906;SDS011;6521;50.498;8.474;2024-03-17T00:34:50;5.83;;;3.60;;
12906;SDS011;6521;50.498;8.474;2024-03-17T00:37:21;4.20;;;3.03;;
12906;SDS011;6521;50.498;8.474;2024-03-17T00:39:51;5.10;;;3.27;;
12906;SDS011;6521;50.498;8.474;2024-03-17T00:42:22;6.97;;;3.27;;
12906;SDS011;6521;50.498;8.474;2024-03-17T00:44:53;4.43;;;2.53;;
12906;SDS011;6521;50.498;8.474;2024-03-17T00:47:23;4.83;;;3.17;;
12906;SDS011;6521;50.498;8.474;2024-03-17T00:49:54;5.20;;;3.07;;
12906;SDS011;6521;50.498;8.474;2024-03-17T00:52:25;6.60;;;3.10;;
12906;SDS011;6521;50.498;8.474;2024-03-17T00:54:57;6.10;;;2.90;;
12906;SDS011;6521;50.498;8.474;2024-03-17T00:57:28;7.13;;;3.53;;
12906;SDS011;6521;50.498;8.474;2024-03-17T00:59:58;4.63;;;3.33;;
12906;SDS011;6521;50.498;8.474;2024-03-17T01:02:29;4.13;;;2.90;;
12906;SDS011;6521;50.498;8.474;2024-03-17T01:05:00;4.03;;;3.00;;
12906;SDS011;6521;50.498;8.474;2024-03-17T01:07:31;4.13;;;2.93;;
12906;SDS011;6521;50.498;8.474;2024-03-17T01:10:02;4.07;;;2.97;;
12906;SDS011;6521;50.498;8.474;2024-03-17T01:12:34;4.53;;;3.57;;
12906;SDS011;6521;50.498;8.474;2024-03-17T01:15:05;4.93;;;2.90;;
12906;SDS011;6521;50.498;8.474;2024-03-17T01:17:36;4.93;;;2.83;;
12906;SDS011;6521;50.498;8.474;2024-03-17T01:20:07;4.03;;;3.33;;
12906;SDS011;6521;50.498;8.474;2024-03-17T01:22:38;3.60;;;3.00;;
12906;SDS011;6521;50.498;8.474;2024-03-17T01:25:09;3.40;;;2.90;;
12906;SDS011;6521;50.498;8.474;2024-03-17T01:27:39;6.27;;;3.23;;
12906;SDS011;6521;50.498;8.474;2024-03-17T01:30:10;3.83;;;3.00;;
12906;SDS011;6521;50.498;8.474;2024-03-17T01:32:43;4.60;;;3.27;;
12906;SDS011;6521;50.498;8.474;2024-03-17T01:35:14;3.83;;;3.10;;
12906;SDS011;6521;50.498;8.474;2024-03-17T01:37:45;3.97;;;3.37;;
12906;SDS011;6521;50.498;8.474;2024-03-17T01:40:16;4.13;;;3.03;;
12906;SDS011;6521;50.498;8.474;2024-03-17T01:42:46;5.97;;;3.37;;
12906;SDS011;6521;50.498;8.474;2024-03-17T01:45:25;6.37;;;3.70;;
12906;SDS011;6521;50.498;8.474;2024-03-17T01:48:01;4.97;;;3.33;;
12906;SDS011;6521;50.498;8.474;2024-03-17T01:50:33;4.00;;;3.03;;
12906;SDS011;6521;50.498;8.474;2024-03-17T01:53:06;6.83;;;2.83;;
12906;SDS011;6521;50.498;8.474;2024-03-17T01:55:40;5.70;;;2.70;;
12906;SDS011;6521;50.498;8.474;2024-03-17T01:58:13;6.37;;;3.50;;
12906;SDS011;6521;50.498;8.474;2024-03-17T02:00:44;5.73;;;3.30;;
12906;SDS011;6521;50.498;8.474;2024-03-17T02:03:15;6.47;;;3.50;;
12906;SDS011;6521;50.498;8.474;2024-03-17T02:05:45;5.13;;;3.57;;
12906;SDS011;6521;50.498;8.474;2024-03-17T02:08:16;5.53;;;3.47;;
12906;SDS011;6521;50.498;8.474;2024-03-17T02:10:54;3.47;;;3.17;;
12906;SDS011;6521;50.498;8.474;2024-03-17T02:13:25;5.03;;;4.10;;
12906;SDS011;6521;50.498;8.474;2024-03-17T02:15:56;4.80;;;3.23;;
12906;SDS011;6521;50.498;8.474;2024-03-17T02:18:27;5.70;;;3.80;;
12906;SDS011;6521;50.498;8.474;2024-03-17T02:20:58;4.37;;;3.60;;
12906;SDS011;6521;50.498;8.474;2024-03-17T02:23:29;6.53;;;3.50;;
12906;SDS011;6521;50.498;8.474;2024-03-17T02:26:00;3.97;;;3.33;;
12906;SDS011;6521;50.498;8.474;2024-03-17T02:28:38;4.63;;;4.20;;
12906;SDS011;6521;50.498;8.474;2024-03-17T02:31:12;6.97;;;3.87;;
12906;SDS011;6521;50.498;8.474;2024-03-17T02:33:46;4.67;;;3.80;;
12906;SDS011;6521;50.498;8.474;2024-03-17T02:36:16;4.97;;;4.20;;
12906;SDS011;6521;50.498;8.474;2024-03-17T02:38:47;6.10;;;4.67;;
12906;SDS011;6521;50.498;8.474;2024-03-17T02:41:37;6.57;;;4.47;;
12906;SDS011;6521;50.498;8.474;2024-03-17T02:44:07;4.53;;;4.13;;
12906;SDS011;6521;50.498;8.474;2024-03-17T02:46:38;7.10;;;5.07;;
12906;SDS011;6521;50.498;8.474;2024-03-17T02:49:09;7.03;;;4.63;;
12906;SDS011;6521;50.498;8.474;2024-03-17T02:51:44;6.83;;;4.33;;
12906;SDS011;6521;50.498;8.474;2024-03-17T02:54:14;4.40;;;3.93;;
12906;SDS011;6521;50.498;8.474;2024-03-17T02:56:45;5.23;;;4.60;;
12906;SDS011;6521;50.498;8.474;2024-03-17T02:59:17;7.57;;;4.57;;
12906;SDS011;6521;50.498;8.474;2024-03-17T03:01:47;4.70;;;4.20;;
12906;SDS011;6521;50.498;8.474;2024-03-17T03:04:18;5.07;;;4.10;;
12906;SDS011;6521;50.498;8.474;2024-03-17T03:06:49;6.37;;;4.10;;
12906;SDS011;6521;50.498;8.474;2024-03-17T03:09:20;4.70;;;4.17;;
12906;SDS011;6521;50.498;8.474;2024-03-17T03:11:52;5.07;;;4.57;;
12906;SDS011;6521;50.498;8.474;2024-03-17T03:14:22;5.20;;;4.33;;
12906;SDS011;6521;50.498;8.474;2024-03-17T03:16:53;4.83;;;4.33;;
12906;SDS011;6521;50.498;8.474;2024-03-17T03:19:25;7.00;;;5.10;;
12906;SDS011;6521;50.498;8.474;2024-03-17T03:21:56;5.57;;;4.73;;
12906;SDS011;6521;50.498;8.474;2024-03-17T03:24:27;7.37;;;4.73;;
12906;SDS011;6521;50.498;8.474;2024-03-17T03:26:58;6.13;;;4.37;;
12906;SDS011;6521;50.498;8.474;2024-03-17T03:29:29;5.10;;;4.10;;
12906;SDS011;6521;50.498;8.474;2024-03-17T03:31:59;4.20;;;3.67;;
12906;SDS011;6521;50.498;8.474;2024-03-17T03:34:30;5.97;;;4.23;;
12906;SDS011;6521;50.498;8.474;2024-03-17T03:37:01;7.13;;;4.07;;
12906;SDS011;6521;50.498;8.474;2024-03-17T03:39:31;6.13;;;4.20;;
12906;SDS011;6521;50.498;8.474;2024-03-17T03:42:02;4.63;;;3.70;;
12906;SDS011;6521;50.498;8.474;2024-03-17T03:44:33;5.97;;;3.70;;
12906;SDS011;6521;50.498;8.474;2024-03-17T03:47:04;9.07;;;4.63;;
12906;SDS011;6521;50.498;8.474;2024-03-17T03:49:34;5.93;;;4.67;;
12906;SDS011;6521;50.498;8.474;2024-03-17T03:52:05;9.30;;;5.30;;
12906;SDS011;6521;50.498;8.474;2024-03-17T03:54:36;6.70;;;4.50;;
12906;SDS011;6521;50.498;8.474;2024-03-17T03:57:07;8.20;;;5.27;;
12906;SDS011;6521;50.498;8.474;2024-03-17T03:59:38;8.37;;;4.77;;
12906;SDS011;6521;50.498;8.474;2024-03-17T04:02:09;6.60;;;5.07;;
12906;SDS011;6521;50.498;8.474;2024-03-17T04:04:40;7.60;;;4.40;;
12906;SDS011;6521;50.498;8.474;2024-03-17T04:07:11;6.20;;;5.03;;
12906;SDS011;6521;50.498;8.474;2024-03-17T04:09:42;5.43;;;4.60;;
12906;SDS011;6521;50.498;8.474;2024-03-17T04:12:13;6.80;;;4.63;;
12906;SDS011;6521;50.498;8.474;2024-03-17T04:14:44;6.23;;;4.53;;
12906;SDS011;6521;50.498;8.474;2024-03-17T04:17:15;5.17;;;4.67;;
12906;SDS011;6521;50.498;8.474;2024-03-17T04:19:50;7.80;;;5.03;;
12906;SDS011;6521;50.498;8.474;2024-03-17T04:22:22;6.47;;;5.03;;
12906;SDS011;6521;50.498;8.474;2024-03-17T04:24:52;7.77;;;4.80;;
12906;SDS011;6521;50.498;8.474;2024-03-17T04:27:24;5.60;;;4.90;;
12906;SDS011;6521;50.498;8.474;2024-03-17T04:29:55;7.77;;;4.60;;
12906;SDS011;6521;50.498;8.474;2024-03-17T04:32:27;8.60;;;5.23;;
12906;SDS011;6521;50.498;8.474;2024-03-17T04:34:57;6.40;;;4.63;;
12906;SDS011;6521;50.498;8.474;2024-03-17T04:37:28;5.13;;;4.57;;
12906;SDS011;6521;50.498;8.474;2024-03-17T04:39:59;9.07;;;4.63;;
12906;SDS011;6521;50.498;8.474;2024-03-17T04:42:29;7.07;;;4.57;;
12906;SDS011;6521;50.498;8.474;2024-03-17T04:45:00;7.20;;;4.40;;
12906;SDS011;6521;50.498;8.474;2024-03-17T04:47:31;5.17;;;4.47;;
12906;SDS011;6521;50.498;8.474;2024-03-17T04:50:01;5.43;;;4.63;;
12906;SDS011;6521;50.498;8.474;2024-03-17T04:52:34;6.03;;;4.97;;
12906;SDS011;6521;50.498;8.474;2024-03-17T04:55:05;5.93;;;4.90;;
12906;SDS011;6521;50.498;8.474;2024-03-17T04:57:36;10.50;;;5.60;;
12906;SDS011;6521;50.498;8.474;2024-03-17T05:00:07;7.10;;;4.93;;
12906;SDS011;6521;50.498;8.474;2024-03-17T05:02:38;7.67;;;5.50;;
12906;SDS011;6521;50.498;8.474;2024-03-17T05:05:09;6.53;;;5.30;;
12906;SDS011;6521;50.498;8.474;2024-03-17T05:07:40;5.97;;;5.37;;
12906;SDS011;6521;50.498;8.474;2024-03-17T05:10:11;5.83;;;5.23;;
12906;SDS011;6521;50.498;8.474;2024-03-17T05:12:42;9.13;;;5.50;;
12906;SDS011;6521;50.498;8.474;2024-03-17T05:15:12;7.17;;;5.30;;
12906;SDS011;6521;50.498;8.474;2024-03-17T05:17:43;6.00;;;5.27;;
12906;SDS011;6521;50.498;8.474;2024-03-17T05:20:14;8.80;;;5.00;;
12906;SDS011;6521;50.498;8.474;2024-03-17T05:22:45;6.40;;;5.03;;
12906;SDS011;6521;50.498;8.474;2024-03-17T05:25:18;8.20;;;4.43;;
12906;SDS011;6521;50.498;8.474;2024-03-17T05:27:49;7.33;;;5.20;;
12906;SDS011;6521;50.498;8.474;2024-03-17T05:30:19;7.27;;;4.97;;
12906;SDS011;6521;50.498;8.474;2024-03-17T05:32:50;7.60;;;4.70;;
12906;SDS011;6521;50.498;8.474;2024-03-17T05:35:24;9.67;;;5.60;;
12906;SDS011;6521;50.498;8.474;2024-03-17T05:37:56;8.90;;;4.90;;
12906;SDS011;6521;50.498;8.474;2024-03-17T05:40:27;7.20;;;5.40;;
12906;SDS011;6521;50.498;8.474;2024-03-17T05:42:58;6.03;;;4.73;;
12906;SDS011;6521;50.498;8.474;2024-03-17T05:45:30;5.43;;;4.57;;
12906;SDS011;6521;50.498;8.474;2024-03-17T05:48:02;6.33;;;5.20;;
12906;SDS011;6521;50.498;8.474;2024-03-17T05:50:35;16.33;;;5.97;;
12906;SDS011;6521;50.498;8.474;2024-03-17T05:53:06;7.00;;;4.90;;
12906;SDS011;6521;50.498;8.474;2024-03-17T05:55:37;7.23;;;5.07;;
12906;SDS011;6521;50.498;8.474;2024-03-17T05:58:08;8.50;;;5.30;;
12906;SDS011;6521;50.498;8.474;2024-03-17T06:00:39;6.30;;;5.33;;
12906;SDS011;6521;50.498;8.474;2024-03-17T06:03:10;8.80;;;5.57;;
12906;SDS011;6521;50.498;8.474;2024-03-17T06:05:41;7.57;;;5.73;;
12906;SDS011;6521;50.498;8.474;2024-03-17T06:08:12;8.60;;;5.43;;
12906;SDS011;6521;50.498;8.474;2024-03-17T06:10:44;6.33;;;5.37;;
12906;SDS011;6521;50.498;8.474;2024-03-17T06:13:17;11.53;;;5.47;;
12906;SDS011;6521;50.498;8.474;2024-03-17T06:15:48;7.37;;;5.40;;
12906;SDS011;6521;50.498;8.474;2024-03-17T06:18:19;6.83;;;5.40;;
12906;SDS011;6521;50.498;8.474;2024-03-17T06:20:50;7.37;;;5.63;;
12906;SDS011;6521;50.498;8.474;2024-03-17T06:23:21;8.50;;;6.00;;
12906;SDS011;6521;50.498;8.474;2024-03-17T06:25:52;8.97;;;6.43;;
12906;SDS011;6521;50.498;8.474;2024-03-17T06:28:25;10.57;;;6.80;;
12906;SDS011;6521;50.498;8.474;2024-03-17T06:30:57;14.90;;;6.93;;
12906;SDS011;6521;50.498;8.474;2024-03-17T06:33:30;11.90;;;7.67;;
12906;SDS011;6521;50.498;8.474;2024-03-17T06:36:03;7.87;;;6.63;;
12906;SDS011;6521;50.498;8.474;2024-03-17T06:38:35;9.53;;;7.53;;
12906;SDS011;6521;50.498;8.474;2024-03-17T06:41:09;11.13;;;7.83;;
12906;SDS011;6521;50.498;8.474;2024-03-17T06:43:41;12.70;;;8.27;;
12906;SDS011;6521;50.498;8.474;2024-03-17T06:46:14;13.97;;;8.07;;
12906;SDS011;6521;50.498;8.474;2024-03-17T06:48:47;10.67;;;8.43;;
12906;SDS011;6521;50.498;8.474;2024-03-17T06:51:22;13.47;;;9.10;;
12906;SDS011;6521;50.498;8.474;2024-03-17T06:53:53;12.50;;;8.67;;
12906;SDS011;6521;50.498;8.474;2024-03-17T06:56:24;11.90;;;7.83;;
12906;SDS011;6521;50.498;8.474;2024-03-17T06:58:55;9.17;;;8.17;;
12906;SDS011;6521;50.498;8.474;2024-03-17T07:01:26;11.27;;;8.23;;
12906;SDS011;6521;50.498;8.474;2024-03-17T07:03:58;11.77;;;8.37;;
12906;SDS011;6521;50.498;8.474;2024-03-17T07:06:29;11.97;;;7.93;;
12906;SDS011;6521;50.498;8.474;2024-03-17T07:09:03;26.57;;;9.00;;
12906;SDS011;6521;50.498;8.474;2024-03-17T07:11:34;14.43;;;8.80;;
12906;SDS011;6521;50.498;8.474;2024-03-17T07:14:06;12.40;;;8.17;;
12906;SDS011;6521;50.498;8.474;2024-03-17T07:16:37;13.27;;;7.97;;
12906;SDS011;6521;50.498;8.474;2024-03-17T07:19:08;15.10;;;8.17;;
12906;SDS011;6521;50.498;8.474;2024-03-17T07:21:38;8.67;;;7.33;;
12906;SDS011;6521;50.498;8.474;2024-03-17T07:24:09;11.07;;;7.73;;
12906;SDS011;6521;50.498;8.474;2024-03-17T07:26:40;9.40;;;7.67;;
12906;SDS011;6521;50.498;8.474;2024-03-17T07:29:11;9.57;;;7.57;;
12906;SDS011;6521;50.498;8.474;2024-03-17T07:31:42;14.87;;;8.60;;
12906;SDS011;6521;50.498;8.474;2024-03-17T07:34:13;17.33;;;8.37;;
12906;SDS011;6521;50.498;8.474;2024-03-17T07:36:43;11.50;;;7.97;;
12906;SDS011;6521;50.498;8.474;2024-03-17T07:39:16;10.30;;;8.07;;
12906;SDS011;6521;50.498;8.474;2024-03-17T07:41:49;11.67;;;8.13;;
12906;SDS011;6521;50.498;8.474;2024-03-17T07:44:20;11.37;;;8.03;;
12906;SDS011;6521;50.498;8.474;2024-03-17T07:46:50;10.67;;;8.33;;
12906;SDS011;6521;50.498;8.474;2024-03-17T07:49:21;15.37;;;8.20;;
12906;SDS011;6521;50.498;8.474;2024-03-17T07:51:52;10.70;;;8.60;;
12906;SDS011;6521;50.498;8.474;2024-03-17T07:54:23;10.00;;;8.67;;
12906;SDS011;6521;50.498;8.474;2024-03-17T07:56:57;11.00;;;9.10;;
12906;SDS011;6521;50.498;8.474;2024-03-17T07:59:28;12.30;;;8.70;;
12906;SDS011;6521;50.498;8.474;2024-03-17T08:01:59;10.73;;;8.63;;
12906;SDS011;6521;50.498;8.474;2024-03-17T08:04:30;14.03;;;8.50;;
12906;SDS011;6521;50.498;8.474;2024-03-17T08:07:02;10.93;;;7.60;;
12906;SDS011;6521;50.498;8.474;2024-03-17T08:09:33;10.23;;;8.57;;
12906;SDS011;6521;50.498;8.474;2024-03-17T08:12:04;10.70;;;7.67;;
12906;SDS011;6521;50.498;8.474;2024-03-17T08:14:35;10.87;;;8.23;;
12906;SDS011;6521;50.498;8.474;2024-03-17T08:17:06;12.47;;;8.70;;
12906;SDS011;6521;50.498;8.474;2024-03-17T08:19:37;19.10;;;8.63;;
12906;SDS011;6521;50.498;8.474;2024-03-17T08:22:12;10.07;;;8.03;;
12906;SDS011;6521;50.498;8.474;2024-03-17T08:24:43;16.17;;;7.40;;
12906;SDS011;6521;50.498;8.474;2024-03-17T08:27:14;13.00;;;8.50;;
12906;SDS011;6521;50.498;8.474;2024-03-17T08:29:45;10.03;;;8.07;;
12906;SDS011;6521;50.498;8.474;2024-03-17T08:32:17;10.00;;;8.30;;
12906;SDS011;6521;50.498;8.474;2024-03-17T08:34:51;10.90;;;7.97;;
12906;SDS011;6521;50.498;8.474;2024-03-17T08:37:21;12.63;;;8.17;;
12906;SDS011;6521;50.498;8.474;2024-03-17T08:39:56;10.23;;;7.93;;
12906;SDS011;6521;50.498;8.474;2024-03-17T08:42:26;12.37;;;7.50;;
12906;SDS011;6521;50.498;8.474;2024-03-17T08:44:57;9.97;;;7.63;;
12906;SDS011;6521;50.498;8.474;2024-03-17T08:47:28;10.57;;;7.73;;
12906;SDS011;6521;50.498;8.474;2024-03-17T08:49:59;13.30;;;7.60;;
12906;SDS011;6521;50.498;8.474;2024-03-17T08:52:34;14.27;;;7.33;;
12906;SDS011;6521;50.498;8.474;2024-03-17T08:55:06;8.70;;;7.03;;
12906;SDS011;6521;50.498;8.474;2024-03-17T08:57:40;9.47;;;6.77;;
12906;SDS011;6521;50.498;8.474;2024-03-17T09:00:12;12.33;;;6.73;;
12906;SDS011;6521;50.498;8.474;2024-03-17T09:02:48;10.17;;;6.73;;
12906;SDS011;6521;50.498;8.474;2024-03-17T09:05:19;8.07;;;6.40;;
12906;SDS011;6521;50.498;8.474;2024-03-17T09:07:50;11.47;;;6.43;;
12906;SDS011;6521;50.498;8.474;2024-03-17T09:10:21;7.37;;;6.30;;
12906;SDS011;6521;50.498;8.474;2024-03-17T09:12:52;7.73;;;6.03;;
12906;SDS011;6521;50.498;8.474;2024-03-17T09:15:23;8.53;;;6.13;;
12906;SDS011;6521;50.498;8.474;2024-03-17T09:17:53;7.33;;;5.60;;
12906;SDS011;6521;50.498;8.474;2024-03-17T09:20:24;7.60;;;5.97;;
12906;SDS011;6521;50.498;8.474;2024-03-17T09:22:55;11.00;;;6.07;;
12906;SDS011;6521;50.498;8.474;2024-03-17T09:25:26;8.77;;;6.20;;
12906;SDS011;6521;50.498;8.474;2024-03-17T09:27:57;8.93;;;5.57;;
12906;SDS011;6521;50.498;8.474;2024-03-17T09:30:29;12.00;;;5.77;;
12906;SDS011;6521;50.498;8.474;2024-03-17T09:32:59;10.20;;;5.77;;
12906;SDS011;6521;50.498;8.474;2024-03-17T09:35:35;8.23;;;5.50;;
12906;SDS011;6521;50.498;8.474;2024-03-17T09:38:06;10.40;;;5.67;;
12906;SDS011;6521;50.498;8.474;2024-03-17T09:40:37;6.60;;;5.53;;
12906;SDS011;6521;50.498;8.474;2024-03-17T09:43:08;5.13;;;4.47;;
12906;SDS011;6521;50.498;8.474;2024-03-17T09:45:42;4.93;;;4.47;;
12906;SDS011;6521;50.498;8.474;2024-03-17T09:48:15;6.67;;;4.50;;
12906;SDS011;6521;50.498;8.474;2024-03-17T09:50:51;4.57;;;3.50;;
12906;SDS011;6521;50.498;8.474;2024-03-17T09:53:29;3.43;;;3.13;;
12906;SDS011;6521;50.498;8.474;2024-03-17T09:56:11;6.77;;;3.30;;
12906;SDS011;6521;50.498;8.474;2024-03-17T09:58:47;4.47;;;3.40;;
12906;SDS011;6521;50.498;8.474;2024-03-17T10:01:19;5.53;;;3.47;;
12906;SDS011;6521;50.498;8.474;2024-03-17T10:03:50;3.97;;;3.30;;
12906;SDS011;6521;50.498;8.474;2024-03-17T10:06:23;5.67;;;3.73;;
12906;SDS011;6521;50.498;8.474;2024-03-17T10:08:56;4.30;;;3.20;;
12906;SDS011;6521;50.498;8.474;2024-03-17T10:11:34;5.80;;;3.20;;
12906;SDS011;6521;50.498;8.474;2024-03-17T10:14:10;4.60;;;3.43;;
12906;SDS011;6521;50.498;8.474;2024-03-17T10:16:42;6.37;;;3.50;;
12906;SDS011;6521;50.498;8.474;2024-03-17T10:21:59;7.03;;;2.93;;
12906;SDS011;6521;50.498;8.474;2024-03-17T10:24:31;11.77;;;3.13;;
12906;SDS011;6521;50.498;8.474;2024-03-17T10:27:04;4.88;;;3.40;;
12906;SDS011;6521;50.498;8.474;2024-03-17T10:29:42;5.45;;;3.78;;
12906;SDS011;6521;50.498;8.474;2024-03-17T10:32:15;7.28;;;3.97;;
12906;SDS011;6521;50.498;8.474;2024-03-17T10:34:47;8.27;;;3.60;;
12906;SDS011;6521;50.498;8.474;2024-03-17T10:37:18;4.63;;;3.38;;
12906;SDS011;6521;50.498;8.474;2024-03-17T10:39:53;6.35;;;3.20;;
12906;SDS011;6521;50.498;8.474;2024-03-17T10:42:29;10.25;;;3.45;;
12906;SDS011;6521;50.498;8.474;2024-03-17T10:45:04;7.90;;;3.10;;
12906;SDS011;6521;50.498;8.474;2024-03-17T10:47:39;8.05;;;3.33;;
12906;SDS011;6521;50.498;8.474;2024-03-17T10:50:18;15.18;;;3.33;;
12906;SDS011;6521;50.498;8.474;2024-03-17T10:52:51;7.35;;;3.60;;
12906;SDS011;6521;50.498;8.474;2024-03-17T10:55:23;5.10;;;3.00;;
12906;SDS011;6521;50.498;8.474;2024-03-17T10:57:55;4.55;;;3.33;;
12906;SDS011;6521;50.498;8.474;2024-03-17T11:00:30;4.03;;;3.33;;
12906;SDS011;6521;50.498;8.474;2024-03-17T11:03:02;10.55;;;3.70;;
12906;SDS011;6521;50.498;8.474;2024-03-17T11:05:33;9.95;;;3.75;;
12906;SDS011;6521;50.498;8.474;2024-03-17T11:08:05;9.07;;;3.45;;
12906;SDS011;6521;50.498;8.474;2024-03-17T11:10:41;6.13;;;3.33;;
12906;SDS011;6521;50.498;8.474;2024-03-17T11:13:26;4.32;;;3.70;;
12906;SDS011;6521;50.498;8.474;2024-03-17T11:15:58;5.57;;;3.55;;
12906;SDS011;6521;50.498;8.474;2024-03-17T11:18:34;6.78;;;3.67;;
12906;SDS011;6521;50.498;8.474;2024-03-17T11:21:07;8.65;;;3.60;;
12906;SDS011;6521;50.498;8.474;2024-03-17T11:23:54;18.98;;;4.13;;
12906;SDS011;6521;50.498;8.474;2024-03-17T11:26:33;6.38;;;3.83;;
12906;SDS011;6521;50.498;8.474;2024-03-17T11:29:06;3.03;;;2.80;;
12906;SDS011;6521;50.498;8.474;2024-03-17T11:31:57;12.48;;;3.47;;
12906;SDS011;6521;50.498;8.474;2024-03-17T11:34:51;15.18;;;4.07;;
12906;SDS011;6521;50.498;8.474;2024-03-17T11:37:45;8.75;;;3.65;;
12906;SDS011;6521;50.498;8.474;2024-03-17T11:40:23;6.28;;;3.45;;
12906;SDS011;6521;50.498;8.474;2024-03-17T11:43:02;8.93;;;3.50;;
12906;SDS011;6521;50.498;8.474;2024-03-17T11:45:35;4.88;;;3.20;;
12906;SDS011;6521;50.498;8.474;2024-03-17T11:48:10;6.00;;;3.45;;
12906;SDS011;6521;50.498;8.474;2024-03-17T11:50:44;4.65;;;3.10;;
12906;SDS011;6521;50.498;8.474;2024-03-17T11:53:15;5.22;;;3.40;;
12906;SDS011;6521;50.498;8.474;2024-03-17T11:55:49;4.53;;;3.50;;
12906;SDS011;6521;50.498;8.474;2024-03-17T11:58:20;5.28;;;3.53;;
12906;SDS011;6521;50.498;8.474;2024-03-17T12:00:52;3.75;;;3.05;;
12906;SDS011;6521;50.498;8.474;2024-03-17T12:03:26;4.63;;;3.85;;
12906;SDS011;6521;50.498;8.474;2024-03-17T12:05:57;6.85;;;3.20;;
12906;SDS011;6521;50.498;8.474;2024-03-17T12:08:28;3.70;;;3.40;;
12906;SDS011;6521;50.498;8.474;2024-03-17T12:10:59;5.03;;;3.58;;
12906;SDS011;6521;50.498;8.474;2024-03-17T12:13:32;6.70;;;3.97;;
12906;SDS011;6521;50.498;8.474;2024-03-17T12:16:11;11.95;;;4.75;;
12906;SDS011;6521;50.498;8.474;2024-03-17T12:18:45;7.93;;;4.40;;
12906;SDS011;6521;50.498;8.474;2024-03-17T12:21:16;4.65;;;3.53;;
12906;SDS011;6521;50.498;8.474;2024-03-17T12:23:47;7.10;;;3.40;;
12906;SDS011;6521;50.498;8.474;2024-03-17T12:26:18;7.72;;;3.83;;
12906;SDS011;6521;50.498;8.474;2024-03-17T12:28:49;8.43;;;3.70;;
12906;SDS011;6521;50.498;8.474;2024-03-17T12:31:20;7.72;;;3.35;;
12906;SDS011;6521;50.498;8.474;2024-03-17T12:33:51;4.72;;;3.83;;
12906;SDS011;6521;50.498;8.474;2024-03-17T12:36:22;18.63;;;4.72;;
12906;SDS011;6521;50.498;8.474;2024-03-17T12:38:54;4.75;;;3.58;;
12906;SDS011;6521;50.498;8.474;2024-03-17T12:41:26;6.03;;;3.65;;
12906;SDS011;6521;50.498;8.474;2024-03-17T12:43:57;6.30;;;3.72;;
12906;SDS011;6521;50.498;8.474;2024-03-17T12:46:27;6.68;;;3.95;;
12906;SDS011;6521;50.498;8.474;2024-03-17T12:48:59;8.32;;;3.83;;
12906;SDS011;6521;50.498;8.474;2024-03-17T12:51:33;8.63;;;3.53;;
12906;SDS011;6521;50.498;8.474;2024-03-17T12:54:14;5.78;;;3.97;;
12906;SDS011;6521;50.498;8.474;2024-03-17T12:56:45;4.00;;;3.40;;
12906;SDS011;6521;50.498;8.474;2024-03-17T12:59:41;7.72;;;3.80;;
12906;SDS011;6521;50.498;8.474;2024-03-17T13:02:31;5.38;;;4.10;;
12906;SDS011;6521;50.498;8.474;2024-03-17T13:05:05;5.15;;;3.50;;
12906;SDS011;6521;50.498;8.474;2024-03-17T13:07:42;4.88;;;3.40;;
12906;SDS011;6521;50.498;8.474;2024-03-17T13:10:17;4.47;;;3.10;;
12906;SDS011;6521;50.498;8.474;2024-03-17T13:12:58;5.15;;;3.40;;
12906;SDS011;6521;50.498;8.474;2024-03-17T13:15:34;5.32;;;3.42;;
12906;SDS011;6521;50.498;8.474;2024-03-17T13:18:06;6.78;;;4.20;;
12906;SDS011;6521;50.498;8.474;2024-03-17T13:20:38;3.65;;;3.00;;
12906;SDS011;6521;50.498;8.474;2024-03-17T13:23:09;5.35;;;3.42;;
12906;SDS011;6521;50.498;8.474;2024-03-17T13:25:39;6.47;;;3.72;;
12906;SDS011;6521;50.498;8.474;2024-03-17T13:28:13;6.35;;;3.40;;
12906;SDS011;6521;50.498;8.474;2024-03-17T13:30:45;6.90;;;3.90;;
12906;SDS011;6521;50.498;8.474;2024-03-17T13:33:17;5.70;;;3.53;;
12906;SDS011;6521;50.498;8.474;2024-03-17T13:35:48;4.50;;;3.40;;
12906;SDS011;6521;50.498;8.474;2024-03-17T13:38:20;6.05;;;3.90;;
12906;SDS011;6521;50.498;8.474;2024-03-17T13:40:51;5.38;;;3.78;;
12906;SDS011;6521;50.498;8.474;2024-03-17T13:43:22;3.53;;;3.17;;
12906;SDS011;6521;50.498;8.474;2024-03-17T13:45:53;5.28;;;3.88;;
12906;SDS011;6521;50.498;8.474;2024-03-17T13:48:25;5.40;;;3.60;;
12906;SDS011;6521;50.498;8.474;2024-03-17T13:50:55;3.83;;;3.45;;
12906;SDS011;6521;50.498;8.474;2024-03-17T13:53:26;5.40;;;3.63;;
12906;SDS011;6521;50.498;8.474;2024-03-17T13:55:57;3.97;;;3.28;;
12906;SDS011;6521;50.498;8.474;2024-03-17T13:58:28;4.60;;;3.28;;
12906;SDS011;6521;50.498;8.474;2024-03-17T14:00:59;3.72;;;3.35;;
12906;SDS011;6521;50.498;8.474;2024-03-17T14:03:30;4.10;;;3.22;;
12906;SDS011;6521;50.498;8.474;2024-03-17T14:06:03;4.07;;;3.25;;
12906;SDS011;6521;50.498;8.474;2024-03-17T14:08:35;4.30;;;3.15;;
12906;SDS011;6521;50.498;8.474;2024-03-17T14:11:06;6.38;;;3.38;;
12906;SDS011;6521;50.498;8.474;2024-03-17T14:13:36;6.28;;;3.67;;
12906;SDS011;6521;50.498;8.474;2024-03-17T14:16:07;4.35;;;3.25;;
12906;SDS011;6521;50.498;8.474;2024-03-17T14:18:38;3.42;;;3.10;;
12906;SDS011;6521;50.498;8.474;2024-03-17T14:21:09;4.97;;;3.13;;
12906;SDS011;6521;50.498;8.474;2024-03-17T14:23:40;5.82;;;3.22;;
12906;SDS011;6521;50.498;8.474;2024-03-17T14:26:12;4.03;;;3.28;;
12906;SDS011;6521;50.498;8.474;2024-03-17T14:28:43;3.45;;;3.15;;
12906;SDS011;6521;50.498;8.474;2024-03-17T14:31:14;4.53;;;3.00;;
12906;SDS011;6521;50.498;8.474;2024-03-17T14:33:45;4.40;;;3.28;;
12906;SDS011;6521;50.498;8.474;2024-03-17T14:36:17;4.13;;;3.08;;
12906;SDS011;6521;50.498;8.474;2024-03-17T14:38:48;3.92;;;3.05;;
12906;SDS011;6521;50.498;8.474;2024-03-17T14:41:20;4.50;;;3.15;;
12906;SDS011;6521;50.498;8.474;2024-03-17T14:43:51;5.53;;;3.30;;
12906;SDS011;6521;50.498;8.474;2024-03-17T14:46:22;4.72;;;3.60;;
12906;SDS011;6521;50.498;8.474;2024-03-17T14:48:53;9.73;;;3.75;;
12906;SDS011;6521;50.498;8.474;2024-03-17T14:51:24;8.65;;;4.20;;
12906;SDS011;6521;50.498;8.474;2024-03-17T14:53:55;5.45;;;3.63;;
12906;SDS011;6521;50.498;8.474;2024-03-17T14:56:26;7.15;;;3.70;;
12906;SDS011;6521;50.498;8.474;2024-03-17T14:58:57;5.57;;;4.57;;
12906;SDS011;6521;50.498;8.474;2024-03-17T15:01:29;6.30;;;5.00;;
12906;SDS011;6521;50.498;8.474;2024-03-17T15:04:00;8.65;;;4.65;;
12906;SDS011;6521;50.498;8.474;2024-03-17T15:06:31;7.50;;;4.90;;
12906;SDS011;6521;50.498;8.474;2024-03-17T15:09:03;8.02;;;4.68;;
12906;SDS011;6521;50.498;8.474;2024-03-17T15:11:35;7.22;;;4.50;;
12906;SDS011;6521;50.498;8.474;2024-03-17T15:14:06;13.55;;;5.32;;
12906;SDS011;6521;50.498;8.474;2024-03-17T15:16:41;5.07;;;4.53;;
12906;SDS011;6521;50.498;8.474;2024-03-17T15:19:12;5.10;;;4.70;;
12906;SDS011;6521;50.498;8.474;2024-03-17T15:21:43;7.43;;;4.95;;
12906;SDS011;6521;50.498;8.474;2024-03-17T15:24:15;7.32;;;5.32;;
12906;SDS011;6521;50.498;8.474;2024-03-17T15:26:46;5.40;;;4.45;;
12906;SDS011;6521;50.498;8.474;2024-03-17T15:29:17;9.30;;;4.88;;
12906;SDS011;6521;50.498;8.474;2024-03-17T15:31:49;7.88;;;4.53;;